• Join FlightAware (Why Join?)
  • Login
  • US Flag 
11:30AM EDT


 

Airport Tracker/Info


-or-


 

Live Flight TrackerFlight Track Log ✈ N1078S ✈ 12-Jan-2014 ✈ KRDU - KCDW

Flight Track Log - Related Links

Times and Time Zones

All times are in EST time to prevent confusion due to time zone crossing. See the N1078S flight status page for this flight to view local times or setup timezone preferences in your user account.

Time Position Orientation Groundspeed Altitude Reporting Facility
EST Latitude Longitude Course Direction KTS MPH feet Rate Location/Type
09:29AM 36.7031 -78.0244 37° Northeast 185 213 7,500  Level Washington Center
09:30AM 36.7456 -77.9844 37° Northeast 185 213 7,500  Level Washington Center
09:31AM 36.7861 -77.9442 38° Northeast 185 213 7,500  Level Washington Center
09:32AM 36.8286 -77.9014 39° Northeast 185 213 7,500  Level Washington Center
09:33AM 36.8692 -77.8583 40° Northeast 185 213 7,500  Level Washington Center
09:34AM 36.9094 -77.8156 40° Northeast 185 213 7,500  Level Washington Center
09:35AM 36.9500 -77.7697 42° Northeast 185 213 7,600  Climbing Washington Center
09:36AM 36.9903 -77.7294 39° Northeast 185 213 7,500 -60 Descending Washington Center
09:37AM 37.0328 -77.6914 36° Northeast 185 213 7,500  Level Washington Center
09:38AM 37.0731 -77.6508 39° Northeast 185 213 7,500  Level Washington Center
09:39AM 37.1156 -77.6078 39° Northeast 185 213 7,500  Level Washington Center
09:41AM 37.1833 -77.5333 41° Northeast 184 212 7,500  Level Potomac TRACON
09:42AM 37.2333 -77.5000 28° Northeast 191 220 7,500 -60 Level Potomac TRACON
09:43AM 37.2667 -77.4667 39° Northeast 187 215 7,400 -60 Descending Potomac TRACON
09:44AM 37.3167 -77.4167 38° Northeast 189 217 7,400  Level Potomac TRACON
09:45AM 37.3500 -77.3833 38° Northeast 185 213 7,500  Climbing Potomac TRACON
09:46AM 37.3833 -77.3333 50° Northeast 187 215 7,400 -60 Descending Potomac TRACON
09:46AM 37.4167 -77.3000 38° Northeast 188 216 7,400  Level Potomac TRACON
09:47AM 37.4667 -77.2667 28° Northeast 191 220 7,400  Level Potomac TRACON
09:48AM 37.5000 -77.2167 50° Northeast 188 216 7,400  Level Potomac TRACON
09:49AM 37.5500 -77.1833 28° Northeast 185 213 7,500  Climbing Potomac TRACON
09:50AM 37.5833 -77.1333 50° Northeast 187 215 7,400 -60 Descending Potomac TRACON
09:51AM 37.6167 -77.1000 38° Northeast 184 212 7,400  Level Potomac TRACON
09:52AM 37.6500 -77.0667 38° Northeast 185 213 7,400  Level Potomac TRACON
09:53AM 37.7000 -77.0167 38° Northeast 189 217 7,500  Climbing Potomac TRACON
09:54AM 37.7167 -76.9964 44° Northeast 187 215 7,400 -120 Descending Washington Center
09:55AM 37.7544 -76.9603 37° Northeast 206 237 7,400  Level Washington Center
09:56AM 37.7947 -76.9189 39° Northeast 201 231 7,400  Level Washington Center
09:57AM 37.8347 -76.8750 41° Northeast 190 219 7,500  Climbing Washington Center
09:58AM 37.8747 -76.8333 39° Northeast 190 219 7,500 -60 Level Washington Center
09:59AM 37.9150 -76.7919 39° Northeast 185 213 7,400  Descending Washington Center
10:00AM 37.9528 -76.7506 41° Northeast 185 213 7,500  Climbing Washington Center
10:01AM 37.9992 -76.7036 39° Northeast 185 213 7,500  Level Washington Center
10:02AM 38.0392 -76.6622 39° Northeast 185 213 7,500  Level Washington Center
10:03AM 38.0811 -76.6206 38° Northeast 185 213 7,600  Climbing Washington Center
10:04AM 38.1233 -76.5764 39° Northeast 185 213 7,500 -60 Descending Washington Center
10:05AM 38.1633 -76.5344 39° Northeast 185 213 7,500  Level Washington Center
10:06AM 38.2011 -76.4900 43° Northeast 185 213 7,500  Level Washington Center
10:07AM 38.2431 -76.4483 38° Northeast 185 213 7,500  Level Washington Center
10:08AM 38.2850 -76.4092 36° Northeast 185 213 7,500  Level Washington Center
10:09AM 38.3228 -76.3750 35° Northeast 185 213 7,500  Level Washington Center
10:10AM 38.3689 -76.3439 28° Northeast 180 207 7,500  Level Washington Center
10:11AM 38.4108 -76.3097 33° Northeast 180 207 7,500  Level Washington Center
10:12AM 38.4528 -76.2756 33° Northeast 180 207 7,500  Level Washington Center
10:13AM 38.4989 -76.2389 32° Northeast 180 207 7,500  Level Washington Center
10:14AM 38.5447 -76.2047 30° Northeast 185 213 7,500  Level Washington Center
10:15AM 38.5972 -76.1575 35° Northeast 195 224 7,500  Level Washington Center
10:16AM 38.6433 -76.1258 28° Northeast 195 224 7,500  Level Washington Center
10:17AM 38.6892 -76.0889 32° Northeast 190 219 7,500  Level Washington Center
10:18AM 38.7331 -76.0547 31° Northeast 190 219 7,500  Level Washington Center
10:19AM 38.7769 -76.0150 35° Northeast 185 213 7,500  Level Washington Center
10:20AM 38.8211 -75.9806 31° Northeast 185 213 7,500  Level Washington Center
10:21AM 38.8647 -75.9489 29° Northeast 185 213 7,500  Level Washington Center
10:22AM 38.9067 -75.9117 35° Northeast 185 213 7,500  Level Washington Center
10:23AM 38.9506 -75.8825 27° Northeast 180 207 7,500  Level Washington Center
10:24AM 38.9922 -75.8453 35° Northeast 180 207 7,500  Level Washington Center
10:25AM 39.0381 -75.8133 28° Northeast 185 213 7,500  Level Washington Center
10:26AM 39.0819 -75.7789 31° Northeast 185 213 7,500  Level Washington Center
10:27AM 39.1217 -75.7442 34° Northeast 185 213 7,500  Level Washington Center
10:29AM 39.2167 -75.6667 32° Northeast 188 216 7,500  Level Philadelphia TRACON
10:30AM 39.2667 -75.6333 27° Northeast 188 216 7,500  Level Philadelphia TRACON
10:31AM 39.3167 -75.5833 38° Northeast 187 215 7,500  Level Philadelphia TRACON
10:32AM 39.3500 -75.5667 21° North 182 209 7,600  Climbing Philadelphia TRACON
10:33AM 39.4000 -75.5167 38° Northeast 187 215 7,500 -240 Descending Philadelphia TRACON
10:34AM 39.4500 -75.4833 27° Northeast 174 200 7,200 -300 Descending Philadelphia TRACON
10:35AM 39.5000 -75.4833 360° North 174 200 7,000 -120 Descending Philadelphia TRACON
10:36AM 39.5333 -75.4833 360° North 171 197 7,000 -240 Level Philadelphia TRACON
10:37AM 39.5833 -75.4667 14° North 173 199 6,600 -600 Descending Philadelphia TRACON
10:38AM 39.6333 -75.4667 360° North 176 203 5,900 -660 Descending Philadelphia TRACON
10:39AM 39.6833 -75.4667 360° North 167 192 5,300 -660 Descending Philadelphia TRACON
10:40AM 39.7167 -75.4667 360° North 155 178 4,700 -660 Descending Philadelphia TRACON
10:41AM 39.7667 -75.4833 346° North 154 177 4,000 -600 Descending Philadelphia TRACON
10:42AM 39.8000 -75.5000 339° North 155 178 3,500 -360 Descending Philadelphia TRACON
10:43AM 39.8333 -75.5167 339° North 151 174 3,400 -60 Descending Philadelphia TRACON
10:44AM 39.8833 -75.5333 346° North 158 182 3,400  Level Philadelphia TRACON
10:45AM 39.9333 -75.5333 360° North 158 182 3,400  Level Philadelphia TRACON
10:46AM 39.9667 -75.5000 37° Northeast 200 230 3,500  Climbing Philadelphia TRACON
10:47AM 40.0000 -75.4500 49° Northeast 188 216 3,400 -60 Descending Philadelphia TRACON
10:48AM 40.0333 -75.4000 49° Northeast 182 209 3,400  Level Philadelphia TRACON
10:49AM 40.0667 -75.3667 37° Northeast 183 211 3,500  Climbing Philadelphia TRACON
10:50AM 40.1167 -75.3167 37° Northeast 186 214 3,400 -60 Descending Philadelphia TRACON
10:51AM 40.1500 -75.2500 57° Northeast 190 219 3,400  Level Philadelphia TRACON
10:52AM 40.1833 -75.2167 37° Northeast 192 221 3,400 60 Level Philadelphia TRACON
10:53AM 40.2167 -75.1667 49° Northeast 186 214 3,600  Climbing Philadelphia TRACON
10:54AM 40.2500 -75.1167 49° Northeast 186 214 3,500 -60 Descending Philadelphia TRACON
10:55AM 40.3000 -75.0667 37° Northeast 186 214 3,500  Level Philadelphia TRACON
10:56AM 40.3167 -75.0333 57° Northeast 184 212 3,500  Level Philadelphia TRACON
10:59AM 40.4167 -74.9000 57° Northeast 187 215 3,500 -60 Level New York TRACON
11:00AM 40.4667 -74.8333 45° Northeast 190 219 3,400 -60 Descending New York TRACON
11:01AM 40.5000 -74.8000 37° Northeast 186 214 3,400 -60 Level New York TRACON
11:02AM 40.5333 -74.7500 49° Northeast 185 213 3,300 -240 Descending New York TRACON
11:03AM 40.5833 -74.7167 27° Northeast 177 204 3,000 -300 Descending New York TRACON
11:04AM 40.6167 -74.6667 49° Northeast 173 199 2,800 -120 Descending New York TRACON
11:05AM 40.6500 -74.6333 37° Northeast 164 189 2,800  Level New York TRACON
11:06AM 40.6833 -74.6000 37° Northeast 174 200 2,800  Level New York TRACON
11:07AM 40.7167 -74.5500 49° Northeast 175 201 2,900  Climbing New York TRACON
11:08AM 40.7667 -74.5167 27° Northeast 174 200 2,900  Level New York TRACON
11:09AM 40.8000 -74.4833 37° Northeast 172 198 2,900 -240 Level New York TRACON
11:10AM 40.8333 -74.4333 49° Northeast 179 206 2,500 -300 Descending New York TRACON
11:11AM 40.8667 -74.3833 49° Northeast 164 189 2,300 -360 Descending New York TRACON
11:12AM 40.8833 -74.3333 66° East 141 162 1,800 -420 Descending New York TRACON
11:14AM 40.9000 -74.2333 78° East 118 136 1,100 -360 Descending New York TRACON